Time;durP1;ratioP1;P1;durP2;ratioP2;P2;SDS_P1;SDS_P2;PMS_P1;PMS_P2;Temp;Humidity;BMP_temperature;BMP_pressure;BME280_temperature;BME280_humidity;BME280_pressure;Samples;Min_cycle;Max_cycle;Signal;HPM_P1;HPM_P2
2021/12/07 00:01:14;;;;;;;;;;;3.30;35.40;;;;;;5051862;28;19946;-86
2021/12/07 00:03:40;;;;;;;;;;;3.20;30.30;;;;;;5061389;28;20039;-85
2021/12/07 00:06:05;;;;;;;;;;;3.20;26.30;;;;;;5065377;28;19908;-85
2021/12/07 00:08:31;;;;;;;;;;;3.10;24.10;;;;;;5061974;28;19919;-85
2021/12/07 00:10:56;;;;;;;;;;;3.10;21.00;;;;;;5064020;28;19917;-85
2021/12/07 00:13:24;;;;;;;;;;;3.10;21.10;;;;;;5061182;28;19966;-84
2021/12/07 00:15:49;;;;;;;;;;;3.10;21.70;;;;;;5067353;28;20353;-85
2021/12/07 00:18:15;;;;;;;;;;;3.10;22.00;;;;;;5051061;28;19917;-85
2021/12/07 00:20:40;;;;;;;;;;;3.10;23.60;;;;;;5047655;28;20407;-85
2021/12/07 00:23:07;;;;;;;;;;;3.20;26.10;;;;;;5063236;28;19913;-85
2021/12/07 00:25:34;;;;;;;;;;;3.20;28.40;;;;;;5062480;28;20059;-84
2021/12/07 00:27:59;;;;;;;;;;;3.20;30.00;;;;;;5073318;28;19912;-85
2021/12/07 00:30:31;;;;;;;;;;;3.30;32.00;;;;;;5053842;28;19919;-85
2021/12/07 00:35:42;;;;;;;;;;;3.40;35.10;;;;;;5048572;28;19977;-85
2021/12/07 00:38:09;;;;;;;;;;;3.40;36.40;;;;;;5063980;28;19971;-84
2021/12/07 00:40:36;;;;;;;;;;;3.50;37.40;;;;;;5059856;28;19963;-84
2021/12/07 00:43:02;;;;;;;;;;;3.50;37.80;;;;;;5031896;28;19916;-85
2021/12/07 00:45:31;;;;;;;;;;;3.50;38.40;;;;;;5036841;28;20296;-84
2021/12/07 00:47:56;;;;;;;;;;;3.60;38.70;;;;;;5053724;28;19996;-84
2021/12/07 00:50:23;;;;;;;;;;;3.70;39.20;;;;;;5058495;28;20110;-85
2021/12/07 00:52:49;;;;;;;;;;;3.70;38.90;;;;;;5057284;28;19909;-85
2021/12/07 00:55:17;;;;;;;;;;;3.70;38.80;;;;;;5062519;28;19913;-85
2021/12/07 00:57:42;;;;;;;;;;;3.80;38.60;;;;;;5059104;28;19948;-84
2021/12/07 01:00:12;;;;;;;;;;;3.80;38.40;;;;;;5068996;28;19932;-85
2021/12/07 01:02:37;;;;;;;;;;;3.90;38.50;;;;;;5053178;28;20361;-84
2021/12/07 01:05:11;;;;;;;;;;;3.90;37.80;;;;;;5054783;28;19941;-85
2021/12/07 01:26:38;;;;;;;;;;;4.20;27.80;;;;;;5048536;28;19947;-84
2021/12/07 01:29:04;;;;;;;;;;;4.20;27.00;;;;;;5056855;28;19913;-85
2021/12/07 01:31:39;;;;;;;;;;;4.20;25.20;;;;;;5067755;28;19913;-85
2021/12/07 01:35:11;;;;;;;;;;;4.20;23.00;;;;;;5063101;28;19919;-85
2021/12/07 01:39:52;;;;;;;;;;;4.30;15.60;;;;;;5065537;28;20418;-85
2021/12/07 01:45:21;;;;;;;;;;;4.30;7.40;;;;;;5056380;28;19919;-85
2021/12/07 01:57:51;;;;;;;;;;;4.40;1.00;;;;;;5064691;28;19913;-85
2021/12/07 02:01:34;;;;;;;;;;;4.50;1.00;;;;;;5054447;28;19970;-85
2021/12/07 02:03:59;;;;;;;;;;;4.50;1.00;;;;;;5056679;28;19942;-85
2021/12/07 02:06:25;;;;;;;;;;;4.50;1.00;;;;;;5060717;28;19909;-85
2021/12/07 02:08:51;;;;;;;;;;;4.50;1.00;;;;;;5064135;28;19916;-85
2021/12/07 02:11:17;;;;;;;;;;;4.60;3.00;;;;;;5069273;28;19908;-85
2021/12/07 02:16:09;;;;;;;;;;;4.60;5.20;;;;;;5056859;28;19924;-84
2021/12/07 02:18:35;;;;;;;;;;;4.70;4.50;;;;;;5045625;28;19963;-84
2021/12/07 02:21:12;;;;;;;;;;;4.70;2.90;;;;;;5068158;28;19913;-85
2021/12/07 02:23:38;;;;;;;;;;;4.70;2.40;;;;;;5047084;28;19917;-84
2021/12/07 02:26:03;;;;;;;;;;;4.70;1.00;;;;;;5060353;28;19928;-84
2021/12/07 02:28:29;;;;;;;;;;;4.70;1.00;;;;;;5043182;28;20364;-85
2021/12/07 02:30:54;;;;;;;;;;;4.70;1.00;;;;;;5067820;28;19913;-85
2021/12/07 02:33:20;;;;;;;;;;;4.70;1.00;;;;;;5068142;28;19970;-85
2021/12/07 02:35:45;;;;;;;;;;;4.70;1.00;;;;;;5049835;28;19913;-85
2021/12/07 02:38:10;;;;;;;;;;;4.70;1.00;;;;;;5060705;28;19913;-84
2021/12/07 02:40:36;;;;;;;;;;;4.70;1.00;;;;;;5070591;28;19919;-85
2021/12/07 02:43:02;;;;;;;;;;;4.70;1.00;;;;;;5042858;28;19935;-85
2021/12/07 02:45:27;;;;;;;;;;;4.70;1.00;;;;;;5056927;28;19928;-85
2021/12/07 02:47:53;;;;;;;;;;;4.70;1.00;;;;;;5057356;28;20311;-85
2021/12/07 02:50:18;;;;;;;;;;;4.80;1.00;;;;;;5045917;28;19920;-84
2021/12/07 02:52:44;;;;;;;;;;;4.70;1.00;;;;;;5056269;28;19952;-85
2021/12/07 02:55:10;;;;;;;;;;;4.70;1.00;;;;;;5042320;28;19968;-85
2021/12/07 02:57:36;;;;;;;;;;;4.70;1.00;;;;;;5051907;28;19918;-85
2021/12/07 03:00:10;;;;;;;;;;;4.70;1.00;;;;;;5065189;28;19921;-85
2021/12/07 03:02:43;;;;;;;;;;;4.70;1.00;;;;;;5070648;28;19939;-85
2021/12/07 03:05:25;;;;;;;;;;;4.60;1.00;;;;;;5063433;28;19941;-86
2021/12/07 03:26:41;;;;;;;;;;;4.40;1.00;;;;;;5046621;28;19920;-84
2021/12/07 03:29:07;;;;;;;;;;;4.40;1.00;;;;;;5061740;28;19912;-85
2021/12/07 03:31:32;;;;;;;;;;;4.40;1.00;;;;;;5065099;28;19927;-85
2021/12/07 03:33:59;;;;;;;;;;;4.40;1.00;;;;;;5061503;28;19935;-85
2021/12/07 03:36:25;;;;;;;;;;;4.40;1.00;;;;;;5055403;28;19913;-85
2021/12/07 03:38:50;;;;;;;;;;;4.40;1.00;;;;;;5038992;28;19917;-85
2021/12/07 03:41:17;;;;;;;;;;;4.40;1.00;;;;;;5045866;28;19912;-85
2021/12/07 03:43:44;;;;;;;;;;;4.40;1.00;;;;;;5057664;28;19920;-85
2021/12/07 03:46:09;;;;;;;;;;;4.40;1.00;;;;;;5064574;28;20000;-84
2021/12/07 03:48:35;;;;;;;;;;;4.40;1.00;;;;;;5063248;28;19955;-84
2021/12/07 03:51:01;;;;;;;;;;;4.40;1.00;;;;;;5061930;28;19912;-84
2021/12/07 03:53:28;;;;;;;;;;;4.40;1.00;;;;;;5057407;28;19995;-85
2021/12/07 03:55:53;;;;;;;;;;;4.40;1.00;;;;;;5055814;28;19927;-84
2021/12/07 03:58:19;;;;;;;;;;;4.40;1.00;;;;;;5048740;28;19947;-85
2021/12/07 04:00:45;;;;;;;;;;;4.40;1.00;;;;;;5071495;28;20403;-85
2021/12/07 04:03:13;;;;;;;;;;;4.50;1.00;;;;;;5064562;28;19916;-84
2021/12/07 04:05:48;;;;;;;;;;;4.50;1.00;;;;;;5051083;28;19964;-84
2021/12/07 04:08:19;;;;;;;;;;;4.50;1.00;;;;;;5040673;28;19912;-85
2021/12/07 04:10:44;;;;;;;;;;;4.50;1.00;;;;;;5033178;28;19997;-85
2021/12/07 04:13:10;;;;;;;;;;;4.50;1.00;;;;;;5059387;28;19913;-84
2021/12/07 04:15:35;;;;;;;;;;;4.50;1.00;;;;;;5043267;28;20052;-85
2021/12/07 04:18:02;;;;;;;;;;;4.50;1.00;;;;;;5055930;28;19931;-85
2021/12/07 04:20:27;;;;;;;;;;;4.40;1.00;;;;;;5059186;28;19929;-85
2021/12/07 04:22:54;;;;;;;;;;;4.40;1.00;;;;;;5051493;28;20372;-85
2021/12/07 04:25:19;;;;;;;;;;;4.40;1.00;;;;;;5034600;28;19913;-85
2021/12/07 04:27:45;;;;;;;;;;;4.30;1.00;;;;;;5046655;28;20288;-85
2021/12/07 04:30:13;;;;;;;;;;;4.40;1.00;;;;;;5058711;28;19912;-84
2021/12/07 04:32:39;;;;;;;;;;;4.40;1.00;;;;;;5049243;28;20054;-84
2021/12/07 04:35:04;;;;;;;;;;;4.40;1.00;;;;;;5057078;28;19958;-84
2021/12/07 04:37:30;;;;;;;;;;;4.40;1.00;;;;;;5060502;28;19912;-84
2021/12/07 04:39:55;;;;;;;;;;;4.40;1.00;;;;;;5061340;28;19976;-84
2021/12/07 04:42:21;;;;;;;;;;;4.40;1.00;;;;;;5066613;28;19913;-84
2021/12/07 04:44:49;;;;;;;;;;;4.40;1.00;;;;;;5047191;28;19928;-84
2021/12/07 04:47:22;;;;;;;;;;;4.30;1.00;;;;;;5060239;28;19967;-84
2021/12/07 04:57:47;;;;;;;;;;;4.20;1.00;;;;;;5061618;28;19920;-85
2021/12/07 05:00:12;;;;;;;;;;;4.20;1.00;;;;;;5062819;28;20335;-84
2021/12/07 05:02:42;;;;;;;;;;;4.20;1.00;;;;;;5056550;28;19917;-84
2021/12/07 05:05:09;;;;;;;;;;;4.20;1.00;;;;;;5059958;28;19917;-84
2021/12/07 05:07:40;;;;;;;;;;;4.30;1.00;;;;;;5055667;28;19987;-84
2021/12/07 05:10:15;;;;;;;;;;;4.30;1.00;;;;;;5060868;28;19962;-84
2021/12/07 05:13:22;;;;;;;;;;;4.30;1.00;;;;;;5039430;28;19917;-84
2021/12/07 05:39:33;;;;;;;;;;;4.00;1.00;;;;;;5049956;28;20277;-84
2021/12/07 05:41:59;;;;;;;;;;;4.00;1.00;;;;;;5049700;28;19913;-84
2021/12/07 05:44:24;;;;;;;;;;;3.90;1.00;;;;;;5069349;28;19923;-84
2021/12/07 05:46:50;;;;;;;;;;;3.90;1.00;;;;;;5061895;28;20292;-84
2021/12/07 05:49:15;;;;;;;;;;;3.90;1.00;;;;;;5064700;28;19912;-84
2021/12/07 05:51:41;;;;;;;;;;;3.80;1.00;;;;;;5066600;28;19917;-84
2021/12/07 05:54:07;;;;;;;;;;;3.80;1.00;;;;;;5059334;28;19917;-84
2021/12/07 05:56:32;;;;;;;;;;;3.80;1.00;;;;;;5030657;28;19912;-84
2021/12/07 05:58:58;;;;;;;;;;;3.80;1.00;;;;;;5045420;28;20366;-84
2021/12/07 06:01:23;;;;;;;;;;;3.80;1.00;;;;;;5061635;28;19973;-84
2021/12/07 06:03:48;;;;;;;;;;;3.80;1.00;;;;;;5056601;28;19913;-84
2021/12/07 06:06:14;;;;;;;;;;;3.80;1.00;;;;;;5064476;28;19913;-84
2021/12/07 06:08:40;;;;;;;;;;;3.80;1.00;;;;;;5051928;28;20365;-84
2021/12/07 06:11:05;;;;;;;;;;;3.80;1.00;;;;;;5064440;28;19963;-84
2021/12/07 06:13:31;;;;;;;;;;;3.90;1.00;;;;;;5025054;28;19913;-84
2021/12/07 06:16:02;;;;;;;;;;;3.90;1.00;;;;;;5046987;28;19971;-85
2021/12/07 06:18:28;;;;;;;;;;;3.90;1.00;;;;;;5038871;28;19971;-84
2021/12/07 06:20:53;;;;;;;;;;;3.80;1.00;;;;;;5059980;28;19913;-84
2021/12/07 06:23:19;;;;;;;;;;;3.80;1.00;;;;;;5063386;28;19951;-84
2021/12/07 06:25:45;;;;;;;;;;;3.80;1.00;;;;;;5054645;28;20336;-84
2021/12/07 06:28:10;;;;;;;;;;;3.70;1.00;;;;;;5061354;28;19913;-84
2021/12/07 06:30:36;;;;;;;;;;;3.70;1.00;;;;;;5043712;28;19932;-83
2021/12/07 06:33:01;;;;;;;;;;;3.60;1.00;;;;;;5060817;28;19905;-84
2021/12/07 06:35:27;;;;;;;;;;;3.60;1.00;;;;;;5025501;28;19948;-84
2021/12/07 06:37:52;;;;;;;;;;;3.60;1.00;;;;;;5051068;28;19922;-84
2021/12/07 06:40:19;;;;;;;;;;;3.60;1.00;;;;;;5024804;28;20336;-84
2021/12/07 06:42:44;;;;;;;;;;;3.50;1.00;;;;;;5049872;28;19967;-84
2021/12/07 06:45:13;;;;;;;;;;;3.50;1.00;;;;;;5036008;28;20341;-84
2021/12/07 06:47:38;;;;;;;;;;;3.50;1.00;;;;;;5042859;28;20297;-84
2021/12/07 06:50:05;;;;;;;;;;;3.50;1.00;;;;;;5042300;28;19919;-84
2021/12/07 06:52:30;;;;;;;;;;;3.50;1.00;;;;;;5051405;28;19985;-86
2021/12/07 06:54:57;;;;;;;;;;;3.40;1.00;;;;;;5017952;28;20381;-85
2021/12/07 06:57:23;;;;;;;;;;;3.50;1.00;;;;;;5021660;28;19913;-85
2021/12/07 06:59:48;;;;;;;;;;;3.60;1.00;;;;;;5039616;28;20015;-85
2021/12/07 07:02:13;;;;;;;;;;;3.60;1.00;;;;;;5041283;28;19924;-85
2021/12/07 07:04:39;;;;;;;;;;;3.70;1.00;;;;;;5036187;28;20404;-85
2021/12/07 07:07:04;;;;;;;;;;;3.70;1.00;;;;;;5036960;28;19956;-85
2021/12/07 07:09:30;;;;;;;;;;;3.60;1.00;;;;;;5020006;28;20012;-85
2021/12/07 07:11:56;;;;;;;;;;;3.60;1.00;;;;;;5039675;28;19908;-85
2021/12/07 07:14:21;;;;;;;;;;;3.60;1.00;;;;;;5037362;28;19955;-85
2021/12/07 07:16:47;;;;;;;;;;;3.60;1.00;;;;;;5042642;28;19909;-85
2021/12/07 07:19:12;;;;;;;;;;;3.60;1.00;;;;;;5031275;28;19966;-85
2021/12/07 07:21:38;;;;;;;;;;;3.60;1.00;;;;;;5058551;28;20471;-85
2021/12/07 07:24:03;;;;;;;;;;;3.50;1.00;;;;;;5038622;28;19913;-85
2021/12/07 07:26:29;;;;;;;;;;;3.50;1.00;;;;;;5043782;28;19965;-85
2021/12/07 07:28:54;;;;;;;;;;;3.50;1.00;;;;;;5029233;28;19952;-87
2021/12/07 07:31:20;;;;;;;;;;;3.50;1.00;;;;;;5020677;28;19913;-85
2021/12/07 07:33:45;;;;;;;;;;;3.50;1.00;;;;;;5054523;28;19928;-84
2021/12/07 07:36:11;;;;;;;;;;;3.50;1.00;;;;;;5024257;28;19916;-85
2021/12/07 07:38:36;;;;;;;;;;;3.50;1.00;;;;;;5043936;28;19921;-84
2021/12/07 07:41:02;;;;;;;;;;;3.60;1.00;;;;;;5049744;28;19913;-85
2021/12/07 07:43:29;;;;;;;;;;;3.60;1.00;;;;;;5054341;28;20284;-84
2021/12/07 07:45:54;;;;;;;;;;;3.70;1.00;;;;;;5059359;28;19982;-84
2021/12/07 07:48:20;;;;;;;;;;;3.70;1.00;;;;;;5045451;28;19909;-84
2021/12/07 07:50:46;;;;;;;;;;;3.90;1.00;;;;;;5061005;28;20388;-85
2021/12/07 07:53:12;;;;;;;;;;;3.90;1.00;;;;;;5034256;28;19913;-84
2021/12/07 07:55:39;;;;;;;;;;;4.00;1.00;;;;;;5050079;28;19936;-84
2021/12/07 07:58:05;;;;;;;;;;;4.10;1.00;;;;;;5037376;28;19917;-84
2021/12/07 08:00:31;;;;;;;;;;;4.20;1.00;;;;;;5042150;28;19916;-83
2021/12/07 08:02:57;;;;;;;;;;;4.30;1.00;;;;;;5055098;28;19917;-84
2021/12/07 08:05:22;;;;;;;;;;;4.40;1.00;;;;;;5061026;28;19912;-83
2021/12/07 08:07:48;;;;;;;;;;;4.50;1.00;;;;;;5064319;28;19912;-84
2021/12/07 08:10:16;;;;;;;;;;;4.60;1.00;;;;;;5062017;28;19913;-84
2021/12/07 08:12:41;;;;;;;;;;;4.80;99.90;;;;;;5056658;28;19955;-83
2021/12/07 08:15:07;;;;;;;;;;;4.70;99.90;;;;;;5021700;28;20312;-84
2021/12/07 08:17:33;;;;;;;;;;;4.60;99.90;;;;;;5053171;28;20330;-83
2021/12/07 08:19:58;;;;;;;;;;;4.50;99.90;;;;;;5051654;28;19924;-84
2021/12/07 08:22:24;;;;;;;;;;;4.80;99.90;;;;;;5035793;28;19913;-84
2021/12/07 08:24:49;;;;;;;;;;;5.60;99.90;;;;;;5069733;28;19921;-84
2021/12/07 08:27:15;;;;;;;;;;;6.80;99.90;;;;;;5059776;28;20404;-84
2021/12/07 08:29:40;;;;;;;;;;;7.30;99.90;;;;;;5040746;28;20373;-84
2021/12/07 08:32:06;;;;;;;;;;;7.40;99.90;;;;;;5050503;28;20403;-84
2021/12/07 08:34:32;;;;;;;;;;;7.30;1.00;;;;;;5031139;28;19935;-84
2021/12/07 08:36:57;;;;;;;;;;;7.30;1.00;;;;;;5063154;28;19920;-84
2021/12/07 08:39:23;;;;;;;;;;;7.40;99.90;;;;;;5058317;28;19923;-84
2021/12/07 08:41:48;;;;;;;;;;;7.60;99.90;;;;;;5063659;28;19956;-84
2021/12/07 08:44:14;;;;;;;;;;;7.70;1.00;;;;;;5045824;28;19913;-84
2021/12/07 08:46:39;;;;;;;;;;;7.80;1.00;;;;;;5049613;28;19984;-85
2021/12/07 08:49:05;;;;;;;;;;;7.70;1.00;;;;;;5051264;28;19912;-85
2021/12/07 08:51:30;;;;;;;;;;;7.70;1.00;;;;;;5058838;28;19954;-85
2021/12/07 08:54:04;;;;;;;;;;;7.70;1.00;;;;;;5062846;28;19917;-84
2021/12/07 09:01:57;;;;;;;;;;;7.50;1.00;;;;;;5041518;28;19939;-83
2021/12/07 09:04:23;;;;;;;;;;;7.40;1.00;;;;;;5038682;28;19921;-85
2021/12/07 09:06:49;;;;;;;;;;;7.20;1.00;;;;;;5043732;28;19940;-84
2021/12/07 09:09:15;;;;;;;;;;;7.10;1.00;;;;;;5040138;28;19916;-85
2021/12/07 09:11:41;;;;;;;;;;;7.20;1.00;;;;;;5035606;28;20499;-84
2021/12/07 09:14:10;;;;;;;;;;;7.30;1.00;;;;;;5035881;28;20285;-84
2021/12/07 09:16:36;;;;;;;;;;;7.20;1.00;;;;;;5059274;28;19912;-84
2021/12/07 09:19:01;;;;;;;;;;;7.20;1.00;;;;;;5061776;28;19924;-85
2021/12/07 09:21:27;;;;;;;;;;;7.20;1.00;;;;;;5036384;28;19917;-85
2021/12/07 09:23:52;;;;;;;;;;;7.00;1.00;;;;;;5068135;28;19956;-84
2021/12/07 09:26:18;;;;;;;;;;;6.80;1.00;;;;;;5024252;28;19913;-83
2021/12/07 09:28:45;;;;;;;;;;;6.70;65.70;;;;;;5056374;28;19975;-84
2021/12/07 09:31:10;;;;;;;;;;;6.70;99.90;;;;;;5066369;28;20387;-84
2021/12/07 09:33:36;;;;;;;;;;;6.80;99.90;;;;;;5028431;28;19917;-84
2021/12/07 09:36:03;;;;;;;;;;;7.10;99.90;;;;;;5043167;28;19930;-84
2021/12/07 09:38:29;;;;;;;;;;;7.40;99.90;;;;;;5043419;28;20304;-84
2021/12/07 09:40:54;;;;;;;;;;;7.60;1.00;;;;;;5065748;28;19966;-84
2021/12/07 09:43:20;;;;;;;;;;;7.70;1.00;;;;;;5039016;28;19913;-84
2021/12/07 09:45:46;;;;;;;;;;;7.70;1.00;;;;;;5047463;28;19999;-84
2021/12/07 09:48:12;;;;;;;;;;;7.60;1.00;;;;;;5065946;28;19908;-84
2021/12/07 09:50:40;;;;;;;;;;;7.60;1.00;;;;;;5036270;28;20012;-84
2021/12/07 09:53:09;;;;;;;;;;;7.60;1.00;;;;;;5028007;28;19913;-84
2021/12/07 09:55:36;;;;;;;;;;;7.50;1.00;;;;;;5054972;28;19913;-84
2021/12/07 09:58:02;;;;;;;;;;;7.50;1.00;;;;;;5044668;28;19913;-85
2021/12/07 10:00:28;;;;;;;;;;;7.50;1.00;;;;;;5050836;28;20383;-84
2021/12/07 10:02:54;;;;;;;;;;;7.40;1.00;;;;;;5027216;28;19912;-84
2021/12/07 10:05:20;;;;;;;;;;;7.40;1.00;;;;;;5074233;28;19961;-84
2021/12/07 10:07:46;;;;;;;;;;;7.50;1.00;;;;;;5060764;28;20300;-84
2021/12/07 10:10:20;;;;;;;;;;;7.50;1.00;;;;;;5056535;28;19917;-84
2021/12/07 10:12:46;;;;;;;;;;;7.50;1.00;;;;;;5054540;28;20227;-84
2021/12/07 10:15:12;;;;;;;;;;;7.40;1.00;;;;;;5047751;28;19913;-84
2021/12/07 10:17:38;;;;;;;;;;;7.30;1.00;;;;;;5056181;28;20457;-84
2021/12/07 10:20:23;;;;;;;;;;;7.30;1.00;;;;;;5061017;28;20340;-85
2021/12/07 10:22:50;;;;;;;;;;;7.30;1.00;;;;;;5057461;28;19913;-84
2021/12/07 10:25:26;;;;;;;;;;;7.30;1.00;;;;;;5040419;28;19958;-84
2021/12/07 10:27:52;;;;;;;;;;;7.30;1.00;;;;;;5061140;28;19916;-85
2021/12/07 10:30:19;;;;;;;;;;;7.30;1.00;;;;;;5041343;28;19912;-84
2021/12/07 10:33:04;;;;;;;;;;;7.30;1.00;;;;;;5044643;28;19920;-84
2021/12/07 10:35:31;;;;;;;;;;;7.30;1.00;;;;;;5060192;28;19955;-84
2021/12/07 10:38:13;;;;;;;;;;;7.30;1.00;;;;;;5049342;28;19913;-85
2021/12/07 10:40:55;;;;;;;;;;;7.30;1.00;;;;;;5051534;28;19966;-84
2021/12/07 10:43:38;;;;;;;;;;;7.30;1.00;;;;;;5049331;28;19962;-85
2021/12/07 10:46:23;;;;;;;;;;;7.30;1.00;;;;;;5066869;28;19920;-85
2021/12/07 10:48:48;;;;;;;;;;;7.40;1.00;;;;;;5056378;28;19920;-84
2021/12/07 10:51:14;;;;;;;;;;;7.40;1.00;;;;;;5026704;28;20404;-84
2021/12/07 10:53:39;;;;;;;;;;;7.40;99.90;;;;;;5058003;28;19916;-84
2021/12/07 10:56:25;;;;;;;;;;;7.60;99.90;;;;;;5053055;28;19921;-84
2021/12/07 10:59:01;;;;;;;;;;;7.60;1.00;;;;;;5062571;28;19925;-84
2021/12/07 11:01:40;;;;;;;;;;;7.60;1.00;;;;;;5050625;28;20233;-84
2021/12/07 11:04:26;;;;;;;;;;;7.70;1.00;;;;;;5058312;28;19966;-84
2021/12/07 11:07:09;;;;;;;;;;;7.80;1.00;;;;;;5047356;28;19917;-84
2021/12/07 11:09:40;;;;;;;;;;;7.90;1.00;;;;;;5063754;28;19955;-84
2021/12/07 11:12:07;;;;;;;;;;;8.00;1.00;;;;;;5056614;28;19916;-84
2021/12/07 11:14:49;;;;;;;;;;;8.10;1.00;;;;;;5049031;28;19912;-85
2021/12/07 11:17:15;;;;;;;;;;;8.20;1.00;;;;;;5064297;28;19912;-85
2021/12/07 11:19:41;;;;;;;;;;;8.80;99.90;;;;;;5062136;28;20299;-85
2021/12/07 11:22:06;;;;;;;;;;;10.00;99.90;;;;;;5057001;28;20003;-85
2021/12/07 11:24:39;;;;;;;;;;;11.30;1.00;;;;;;5042648;28;20282;-85
2021/12/07 11:30:00;;;;;;;;;;;13.70;1.00;;;;;;5053520;28;19922;-85
2021/12/07 11:32:26;;;;;;;;;;;14.90;1.00;;;;;;5036752;28;20377;-85
2021/12/07 11:34:52;;;;;;;;;;;15.70;1.00;;;;;;5063057;28;19920;-85
2021/12/07 11:37:17;;;;;;;;;;;16.30;1.00;;;;;;5056476;28;19951;-85
2021/12/07 11:39:50;;;;;;;;;;;16.80;1.00;;;;;;5060218;28;20470;-84
2021/12/07 11:42:18;;;;;;;;;;;17.40;1.00;;;;;;5033218;28;19925;-85
2021/12/07 11:44:49;;;;;;;;;;;17.80;1.00;;;;;;5068663;28;19963;-85
2021/12/07 11:47:14;;;;;;;;;;;18.20;1.00;;;;;;5028665;28;20391;-85
2021/12/07 11:49:40;;;;;;;;;;;18.30;1.00;;;;;;5060781;28;19946;-85
2021/12/07 11:52:06;;;;;;;;;;;18.50;1.00;;;;;;5046264;28;19938;-84
2021/12/07 11:54:34;;;;;;;;;;;18.70;1.00;;;;;;5055852;28;19909;-85
2021/12/07 11:57:00;;;;;;;;;;;18.90;1.00;;;;;;5043216;28;19913;-87
2021/12/07 11:59:26;;;;;;;;;;;19.10;1.00;;;;;;5032795;28;19983;-85
2021/12/07 12:01:51;;;;;;;;;;;19.30;1.00;;;;;;5055289;28;19952;-85
2021/12/07 12:04:18;;;;;;;;;;;19.50;1.00;;;;;;5035037;28;19921;-85
2021/12/07 12:06:48;;;;;;;;;;;19.40;1.00;;;;;;5045927;28;19912;-85
2021/12/07 12:09:14;;;;;;;;;;;19.40;1.00;;;;;;5053233;28;19987;-85
2021/12/07 12:11:44;;;;;;;;;;;19.50;1.00;;;;;;5061749;28;19951;-85
2021/12/07 12:14:20;;;;;;;;;;;19.40;1.00;;;;;;5046927;28;19966;-84
2021/12/07 12:16:51;;;;;;;;;;;19.40;1.00;;;;;;5036929;28;20003;-85
2021/12/07 12:19:22;;;;;;;;;;;19.30;1.00;;;;;;5057644;28;19921;-85
2021/12/07 12:21:50;;;;;;;;;;;19.20;1.00;;;;;;5054696;28;19935;-85
2021/12/07 12:24:34;;;;;;;;;;;19.20;1.00;;;;;;5039495;28;19916;-85
2021/12/07 12:27:10;;;;;;;;;;;19.10;1.00;;;;;;5042390;28;20389;-85
2021/12/07 12:29:37;;;;;;;;;;;19.10;1.00;;;;;;5043614;28;19921;-85
2021/12/07 12:32:03;;;;;;;;;;;19.00;1.00;;;;;;5022532;28;19913;-84
2021/12/07 12:34:30;;;;;;;;;;;18.90;99.90;;;;;;5060954;28;19913;-85
2021/12/07 12:36:55;;;;;;;;;;;18.80;99.90;;;;;;5057960;28;20212;-85
2021/12/07 12:39:38;;;;;;;;;;;18.40;99.90;;;;;;5058204;28;19916;-85
2021/12/07 12:42:03;;;;;;;;;;;18.20;99.90;;;;;;5058597;28;19912;-84
2021/12/07 12:44:33;;;;;;;;;;;18.10;99.90;;;;;;5066710;28;19913;-85
2021/12/07 12:46:59;;;;;;;;;;;17.90;99.90;;;;;;5040535;28;20373;-85
2021/12/07 12:49:35;;;;;;;;;;;17.80;99.90;;;;;;5049849;28;19919;-84
2021/12/07 12:52:00;;;;;;;;;;;17.80;99.90;;;;;;5028363;28;19924;-84
2021/12/07 12:54:25;;;;;;;;;;;17.60;99.90;;;;;;5055900;28;19988;-84
2021/12/07 12:56:51;;;;;;;;;;;17.30;99.90;;;;;;5062507;28;19916;-84
2021/12/07 12:59:17;;;;;;;;;;;17.10;99.90;;;;;;5068004;28;19957;-84
2021/12/07 13:01:45;;;;;;;;;;;16.80;99.90;;;;;;5060540;28;19913;-84
2021/12/07 13:04:26;;;;;;;;;;;16.50;99.90;;;;;;5066114;28;20319;-85
2021/12/07 13:09:40;;;;;;;;;;;16.20;99.90;;;;;;5063290;28;19917;-85
2021/12/07 13:12:07;;;;;;;;;;;15.60;99.90;;;;;;5061404;28;20012;-85
2021/12/07 13:14:33;;;;;;;;;;;15.40;99.90;;;;;;5051071;28;19913;-85
2021/12/07 13:17:04;;;;;;;;;;;15.30;99.90;;;;;;5051651;28;19924;-85
2021/12/07 13:19:30;;;;;;;;;;;15.00;99.90;;;;;;5057865;28;19964;-84
2021/12/07 13:22:06;;;;;;;;;;;14.60;99.90;;;;;;5042760;28;19924;-85
2021/12/07 13:24:34;;;;;;;;;;;14.40;99.90;;;;;;5045700;28;19990;-85
2021/12/07 13:27:01;;;;;;;;;;;14.40;99.90;;;;;;5025364;28;19913;-84
2021/12/07 13:29:26;;;;;;;;;;;14.00;99.90;;;;;;5060458;28;19913;-84
2021/12/07 13:31:55;;;;;;;;;;;13.90;99.90;;;;;;5061746;28;19978;-84
2021/12/07 13:34:29;;;;;;;;;;;13.60;99.90;;;;;;5026149;28;19921;-84
2021/12/07 13:36:56;;;;;;;;;;;13.30;99.90;;;;;;5046525;28;19970;-84
2021/12/07 13:39:23;;;;;;;;;;;13.00;99.90;;;;;;5042782;28;19917;-84
2021/12/07 13:41:58;;;;;;;;;;;12.50;99.90;;;;;;5051364;28;19968;-84
2021/12/07 13:44:23;;;;;;;;;;;11.80;99.90;;;;;;5050552;28;19913;-84
2021/12/07 13:46:53;;;;;;;;;;;11.20;99.90;;;;;;5070216;28;19920;-84
2021/12/07 13:49:19;;;;;;;;;;;10.70;99.90;;;;;;5057892;28;19998;-84
2021/12/07 13:51:45;;;;;;;;;;;10.30;99.90;;;;;;5063070;28;20437;-84
2021/12/07 13:54:15;;;;;;;;;;;9.90;99.90;;;;;;5062361;28;19924;-84
2021/12/07 13:56:40;;;;;;;;;;;9.70;99.90;;;;;;5052887;28;20316;-85
2021/12/07 13:59:13;;;;;;;;;;;9.20;99.90;;;;;;5051038;28;19925;-85
2021/12/07 14:01:46;;;;;;;;;;;9.20;99.90;;;;;;5062098;28;19919;-85
2021/12/07 14:04:11;;;;;;;;;;;9.00;99.90;;;;;;5057878;28;19920;-85
2021/12/07 14:06:37;;;;;;;;;;;8.90;99.90;;;;;;5045517;28;19976;-85
2021/12/07 14:09:03;;;;;;;;;;;8.90;99.90;;;;;;5053809;28;19917;-86
2021/12/07 14:11:29;;;;;;;;;;;8.80;99.90;;;;;;5052495;28;19917;-84
2021/12/07 14:13:55;;;;;;;;;;;8.50;99.90;;;;;;5057497;28;19918;-85
2021/12/07 14:16:23;;;;;;;;;;;8.40;99.90;;;;;;5031724;28;20262;-84
2021/12/07 14:18:49;;;;;;;;;;;8.20;99.90;;;;;;5038386;28;19916;-85
2021/12/07 14:21:15;;;;;;;;;;;8.00;99.90;;;;;;5040034;28;19913;-85
2021/12/07 14:23:42;;;;;;;;;;;7.90;99.90;;;;;;5071571;28;19912;-84
2021/12/07 14:26:12;;;;;;;;;;;7.60;99.90;;;;;;5048790;28;19909;-85
2021/12/07 14:28:42;;;;;;;;;;;7.60;99.90;;;;;;5069008;28;19927;-84
2021/12/07 14:31:11;;;;;;;;;;;7.60;99.90;;;;;;5050188;28;19935;-85
2021/12/07 14:33:40;;;;;;;;;;;7.50;99.90;;;;;;5049126;28;19913;-84
2021/12/07 14:36:05;;;;;;;;;;;7.40;99.90;;;;;;5058061;28;19912;-84
2021/12/07 14:38:31;;;;;;;;;;;7.30;99.90;;;;;;5047249;28;19917;-84
2021/12/07 14:41:01;;;;;;;;;;;7.10;99.90;;;;;;5065261;28;19913;-84
2021/12/07 14:43:27;;;;;;;;;;;7.00;99.90;;;;;;5058085;28;20431;-84
2021/12/07 14:45:56;;;;;;;;;;;7.00;1.00;;;;;;5057399;28;19912;-84
2021/12/07 14:48:22;;;;;;;;;;;7.00;1.00;;;;;;5062809;28;19912;-84
2021/12/07 14:50:47;;;;;;;;;;;7.00;1.00;;;;;;5061364;28;20653;-84
2021/12/07 14:53:13;;;;;;;;;;;6.90;1.00;;;;;;5042346;28;20299;-83
2021/12/07 14:55:38;;;;;;;;;;;6.90;1.00;;;;;;5057049;28;19916;-84
2021/12/07 14:58:05;;;;;;;;;;;6.80;1.00;;;;;;5038762;28;19944;-84
2021/12/07 15:00:30;;;;;;;;;;;6.60;1.00;;;;;;5074843;28;19956;-84
2021/12/07 15:02:55;;;;;;;;;;;6.40;1.00;;;;;;5061569;28;20403;-84
2021/12/07 15:05:21;;;;;;;;;;;6.30;1.00;;;;;;5052258;28;19976;-83
2021/12/07 15:07:46;;;;;;;;;;;6.40;1.00;;;;;;5059215;28;19913;-84
2021/12/07 15:10:14;;;;;;;;;;;6.30;1.00;;;;;;5049300;28;20425;-84
2021/12/07 15:12:40;;;;;;;;;;;6.20;1.00;;;;;;5047407;28;19912;-85
2021/12/07 15:15:07;;;;;;;;;;;6.20;1.00;;;;;;5061490;28;19917;-84
2021/12/07 15:17:33;;;;;;;;;;;6.10;1.00;;;;;;5056451;28;19912;-83
2021/12/07 15:19:59;;;;;;;;;;;6.10;1.00;;;;;;5056269;28;19924;-83
2021/12/07 15:22:25;;;;;;;;;;;6.10;1.00;;;;;;5058613;28;20003;-83
2021/12/07 15:24:50;;;;;;;;;;;6.10;1.00;;;;;;5056510;28;20411;-83
2021/12/07 15:27:18;;;;;;;;;;;6.10;1.00;;;;;;5054627;28;19914;-83
2021/12/07 15:29:44;;;;;;;;;;;6.00;1.00;;;;;;5043620;28;19958;-83
2021/12/07 15:32:11;;;;;;;;;;;6.10;1.00;;;;;;5061760;28;20011;-84
2021/12/07 15:34:39;;;;;;;;;;;6.10;1.00;;;;;;5032791;28;19920;-84
2021/12/07 15:37:18;;;;;;;;;;;6.10;1.00;;;;;;5060784;28;19913;-83
2021/12/07 15:39:45;;;;;;;;;;;6.10;1.00;;;;;;5058236;28;19916;-83
2021/12/07 15:42:15;;;;;;;;;;;6.00;1.00;;;;;;5073578;28;20213;-83
2021/12/07 15:44:47;;;;;;;;;;;5.90;1.00;;;;;;5051526;28;20003;-84
2021/12/07 15:47:17;;;;;;;;;;;5.80;1.00;;;;;;5051316;28;19963;-83
2021/12/07 15:50:12;;;;;;;;;;;5.70;1.00;;;;;;5064558;28;19912;-83
2021/12/07 15:52:40;;;;;;;;;;;5.60;1.00;;;;;;5042537;28;19912;-84
2021/12/07 15:55:19;;;;;;;;;;;5.60;1.00;;;;;;5054970;28;19918;-84
2021/12/07 15:57:44;;;;;;;;;;;5.60;1.00;;;;;;5068029;28;19908;-83
2021/12/07 16:00:10;;;;;;;;;;;5.60;1.00;;;;;;5059026;28;19917;-82
2021/12/07 16:02:36;;;;;;;;;;;5.50;1.00;;;;;;5041780;28;19970;-83
2021/12/07 16:05:07;;;;;;;;;;;5.40;1.00;;;;;;5032346;28;20186;-83
2021/12/07 16:07:32;;;;;;;;;;;5.30;1.00;;;;;;5063771;28;19913;-83
2021/12/07 16:10:05;;;;;;;;;;;5.20;1.00;;;;;;5059862;28;19979;-83
2021/12/07 16:12:31;;;;;;;;;;;5.20;1.00;;;;;;5051090;28;19913;-83
2021/12/07 16:15:26;;;;;;;;;;;5.10;1.00;;;;;;5063666;28;19966;-83
2021/12/07 16:17:54;;;;;;;;;;;5.10;1.00;;;;;;5035646;28;19960;-83
2021/12/07 16:20:19;;;;;;;;;;;5.00;1.00;;;;;;5050793;28;19917;-83
2021/12/07 16:22:45;;;;;;;;;;;5.00;1.00;;;;;;5058449;28;20000;-83
2021/12/07 16:25:10;;;;;;;;;;;5.00;1.00;;;;;;5064778;28;19920;-83